Time;durP1;ratioP1;P1;durP2;ratioP2;P2;SDS_P1;SDS_P2;PMS_P1;PMS_P2;Temp;Humidity;BMP_temperature;BMP_pressure;BME280_temperature;BME280_humidity;BME280_pressure;Samples;Min_cycle;Max_cycle;Signal;HPM_P1;HPM_P2
2020/12/23 13:35:33;;;;;;;19.25;13.90;;;;;;;10.03;82.77;98733.21;2328791;76;22808;-93
2020/12/23 13:38:41;;;;;;;16.45;13.70;;;;;;;10.10;82.54;98730.22;2261945;78;21257;-92
2020/12/23 13:41:44;;;;;;;16.20;13.03;;;;;;;10.17;82.41;98733.77;2296056;78;21458;-91
2020/12/23 13:44:46;;;;;;;16.32;12.30;;;;;;;10.18;82.37;98728.84;2295419;76;21151;-87
2020/12/23 13:47:48;;;;;;;15.35;11.48;;;;;;;10.18;82.38;98730.16;2294365;78;21605;-91
2020/12/23 13:50:49;;;;;;;18.62;13.08;;;;;;;10.16;82.26;98733.45;2291499;78;21111;-91
2020/12/23 13:53:51;;;;;;;17.62;12.98;;;;;;;10.14;82.25;98736.72;2293900;78;21158;-87
2020/12/23 13:56:53;;;;;;;21.52;15.88;;;;;;;10.13;82.39;98728.05;2292756;78;21272;-91
2020/12/23 13:59:55;;;;;;;26.12;18.35;;;;;;;10.15;82.39;98730.02;2292443;78;21142;-89
2020/12/23 14:02:57;;;;;;;35.03;23.52;;;;;;;10.11;82.39;98731.34;2296036;76;21135;-91
2020/12/23 14:05:58;;;;;;;32.70;23.25;;;;;;;10.07;82.34;98730.09;2295636;76;21110;-87
2020/12/23 14:09:00;;;;;;;29.85;21.80;;;;;;;10.02;82.37;98724.55;2295283;78;21106;-90
2020/12/23 14:12:02;;;;;;;30.60;20.68;;;;;;;9.96;82.16;98718.20;2292430;78;21288;-92
2020/12/23 14:15:04;;;;;;;25.12;17.67;;;;;;;9.93;82.42;98715.95;2292906;78;21285;-92
2020/12/23 14:18:06;;;;;;;28.77;17.67;;;;;;;9.94;82.49;98720.19;2261143;78;21154;-92
2020/12/23 14:21:08;;;;;;;20.40;14.95;;;;;;;9.92;82.41;98711.72;2293330;78;21158;-91
2020/12/23 14:24:10;;;;;;;18.35;13.80;;;;;;;9.90;82.41;98708.97;2295537;78;21178;-94
2020/12/23 14:27:12;;;;;;;22.27;15.75;;;;;;;9.82;82.30;98715.06;2293353;78;21747;-94
2020/12/23 14:30:14;;;;;;;27.55;18.12;;;;;;;9.78;82.45;98715.56;2291970;78;21174;-93
2020/12/23 14:33:16;;;;;;;29.05;20.55;;;;;;;9.75;82.50;98718.54;2288862;78;21165;-94
2020/12/23 14:36:18;;;;;;;30.00;20.60;;;;;;;9.69;82.51;98716.12;2245729;78;21289;-93
2020/12/23 14:39:20;;;;;;;29.45;19.85;;;;;;;9.61;82.50;98720.12;2273867;78;21559;-93
2020/12/23 14:42:22;;;;;;;28.73;18.82;;;;;;;9.46;82.58;98716.11;2273666;78;21151;-92
2020/12/23 14:45:24;;;;;;;28.10;19.15;;;;;;;9.38;82.81;98717.45;2272824;78;21289;-94
2020/12/23 14:48:25;;;;;;;31.85;20.68;;;;;;;9.33;82.91;98718.48;2272714;78;21135;-94
2020/12/23 14:51:27;;;;;;;33.15;22.82;;;;;;;9.29;83.08;98714.56;2272565;78;21681;-94
2020/12/23 14:54:29;;;;;;;39.78;26.42;;;;;;;9.30;83.17;98724.84;2272828;78;21347;-93
2020/12/23 14:57:31;;;;;;;47.45;29.07;;;;;;;9.26;83.18;98725.36;2272556;78;21139;-93
2020/12/23 15:00:32;;;;;;;42.25;28.42;;;;;;;9.21;83.14;98718.02;2272378;78;21123;-94
2020/12/23 15:03:34;;;;;;;42.53;27.45;;;;;;;9.10;83.20;98720.52;2273036;78;21305;-94
2020/12/23 15:06:36;;;;;;;43.28;28.70;;;;;;;9.07;83.34;98713.53;2272499;78;21725;-95
2020/12/23 15:09:44;;;;;;;49.67;29.65;;;;;;;9.05;83.48;98705.87;2272780;78;21122;-96
2020/12/23 15:12:46;;;;;;;43.80;28.25;;;;;;;9.07;83.67;98708.31;2245070;78;21249;-94
2020/12/23 15:16:10;;;;;;;50.30;29.65;;;;;;;9.05;83.46;98712.86;2274118;78;21150;-95
2020/12/23 15:19:11;;;;;;;43.28;27.93;;;;;;;9.01;83.60;98715.02;2272528;78;21564;-93
2020/12/23 15:22:15;;;;;;;51.77;30.82;;;;;;;9.02;83.63;98710.11;2272747;78;21276;-94
2020/12/23 15:25:24;;;;;;;45.88;30.40;;;;;;;9.00;83.75;98701.64;2272912;78;21142;-94
2020/12/23 15:28:47;;;;;;;51.20;30.68;;;;;;;8.89;83.68;98705.11;2273694;78;21327;-90
2020/12/23 15:31:49;;;;;;;54.08;32.48;;;;;;;8.90;83.80;98704.13;2272609;78;21268;-94
2020/12/23 15:34:51;;;;;;;42.23;27.13;;;;;;;8.83;83.80;98696.15;2270855;77;21115;-93
2020/12/23 15:37:53;;;;;;;36.30;22.98;;;;;;;8.80;84.02;98692.58;2270288;78;21252;-93
2020/12/23 15:40:54;;;;;;;38.90;23.30;;;;;;;8.76;84.03;98695.19;2270305;78;21272;-89
2020/12/23 15:44:05;;;;;;;37.42;22.52;;;;;;;8.72;84.30;98688.69;2270350;78;21265;-96
2020/12/23 15:47:05;;;;;;;35.73;21.77;;;;;;;8.71;84.22;98700.11;2269456;78;21091;-91
2020/12/23 15:50:08;;;;;;;32.93;20.62;;;;;;;8.70;84.14;98695.88;2269671;78;21581;-91
2020/12/23 15:53:11;;;;;;;35.48;22.17;;;;;;;8.67;84.33;98694.39;2270879;78;21293;-93
2020/12/23 15:56:16;;;;;;;38.25;22.32;;;;;;;8.70;84.49;98691.96;2207098;79;21099;-90
2020/12/23 15:59:17;;;;;;;37.38;21.97;;;;;;;8.70;84.54;98682.83;2230657;80;21310;-92
2020/12/23 16:02:19;;;;;;;38.33;20.85;;;;;;;8.67;84.39;98682.64;2229726;80;21152;-90
2020/12/23 16:05:21;;;;;;;33.98;21.15;;;;;;;8.67;84.54;98678.73;2229778;80;21298;-92
2020/12/23 16:08:23;;;;;;;38.60;22.05;;;;;;;8.66;84.50;98670.58;2232074;80;21145;-92
2020/12/23 16:11:25;;;;;;;45.12;25.12;;;;;;;8.62;84.66;98674.52;2204767;80;21326;-91
2020/12/23 16:14:27;;;;;;;38.53;23.95;;;;;;;8.59;84.76;98674.03;2232231;80;21268;-91
2020/12/23 16:17:30;;;;;;;49.08;28.40;;;;;;;8.50;84.85;98664.94;2231811;80;21307;-93
2020/12/23 16:20:31;;;;;;;59.30;32.05;;;;;;;8.47;84.97;98664.44;2229738;80;21148;-94
2020/12/23 16:23:35;;;;;;;48.65;29.87;;;;;;;8.46;85.06;98659.72;2231061;80;21298;-93
2020/12/23 16:26:41;;;;;;;57.80;32.00;;;;;;;8.44;85.07;98661.69;2230060;80;21687;-94
2020/12/23 16:29:45;;;;;;;61.18;33.67;;;;;;;8.46;85.32;98658.91;2203654;80;21283;-94
2020/12/23 16:32:47;;;;;;;66.33;33.95;;;;;;;8.45;85.38;98645.05;2229789;80;21710;-94
2020/12/23 16:35:50;;;;;;;56.48;32.55;;;;;;;8.43;85.44;98644.41;2245517;79;21155;-92
2020/12/23 16:38:55;;;;;;;55.88;30.50;;;;;;;8.39;85.46;98644.40;2250606;79;21250;-92
2020/12/23 16:41:59;;;;;;;69.17;34.33;;;;;;;8.42;85.56;98640.17;2250565;79;21520;-92
2020/12/23 16:45:02;;;;;;;60.35;32.33;;;;;;;8.43;85.69;98637.07;2248691;79;21168;-90
2020/12/23 16:48:13;;;;;;;57.03;29.18;;;;;;;8.43;85.76;98628.75;2247888;79;21136;-92
2020/12/23 16:51:17;;;;;;;56.75;29.35;;;;;;;8.39;85.59;98637.06;2247535;79;21246;-93
2020/12/23 16:54:22;;;;;;;49.08;27.45;;;;;;;8.38;85.76;98628.42;2247507;79;21148;-91
2020/12/23 16:57:27;;;;;;;57.33;30.52;;;;;;;8.42;85.88;98633.64;2248868;79;21243;-92
2020/12/23 17:00:29;;;;;;;64.95;33.73;;;;;;;8.43;85.92;98620.11;2250281;79;21298;-90
2020/12/23 17:03:33;;;;;;;65.15;34.05;;;;;;;8.41;85.92;98624.20;2247407;78;21131;-92
2020/12/23 17:06:55;;;;;;;61.15;30.62;;;;;;;8.39;85.93;98630.05;2244818;78;21298;-92
2020/12/23 17:09:56;;;;;;;58.50;30.72;;;;;;;8.35;85.94;98628.77;2246002;79;21160;-91
2020/12/23 17:12:58;;;;;;;59.30;32.08;;;;;;;8.34;86.00;98631.03;2245755;79;21281;-92
2020/12/23 17:16:00;;;;;;;59.95;32.78;;;;;;;8.34;86.08;98629.72;2246070;79;21294;-92
2020/12/23 17:19:04;;;;;;;67.97;35.85;;;;;;;8.37;86.12;98620.28;2245913;79;21135;-92
2020/12/23 17:22:06;;;;;;;62.73;32.35;;;;;;;8.37;86.13;98616.36;2245915;79;21277;-91
2020/12/23 17:25:08;;;;;;;55.95;30.92;;;;;;;8.34;86.15;98612.77;2246281;79;21166;-92
2020/12/23 17:28:10;;;;;;;50.78;27.60;;;;;;;8.36;86.29;98612.63;2246537;79;21281;-93
2020/12/23 17:31:16;;;;;;;50.73;26.35;;;;;;;8.34;86.38;98607.55;2245446;79;21264;-94
2020/12/23 17:34:19;;;;;;;65.97;33.02;;;;;;;8.41;86.42;98605.94;2241763;79;21567;-95
2020/12/23 17:37:28;;;;;;;53.85;31.60;;;;;;;8.43;86.46;98610.98;2203603;81;21278;-90
2020/12/23 17:40:35;;;;;;;62.15;32.88;;;;;;;8.40;86.51;98605.58;2163235;82;21154;-92
2020/12/23 17:43:36;;;;;;;58.10;31.05;;;;;;;8.38;86.40;98604.94;2162903;82;21312;-92
2020/12/23 17:46:40;;;;;;;57.23;28.07;;;;;;;8.36;86.48;98610.02;2163083;82;21337;-93
2020/12/23 17:49:42;;;;;;;60.50;30.40;;;;;;;8.34;86.50;98606.73;2163664;82;21320;-93
2020/12/23 17:52:46;;;;;;;56.65;27.35;;;;;;;8.33;86.68;98602.02;2166448;81;21298;-95
2020/12/23 17:56:01;;;;;;;;;;;;;;;;;;;;;
2020/12/23 17:59:17;;;;;;;56.65;28.75;;;;;;;8.41;86.71;98596.80;2254854;78;23048;-93
2020/12/23 18:02:45;;;;;;;;;;;;;;;;;;;;;
2020/12/23 18:05:50;;;;;;;60.03;29.40;;;;;;;8.39;86.79;98576.56;2195827;81;21102;-95
2020/12/23 18:09:02;;;;;;;61.48;30.43;;;;;;;8.32;86.77;98574.77;2195861;81;21292;-95
2020/12/23 18:12:09;;;;;;;68.20;31.73;;;;;;;8.34;86.89;98584.56;2195620;81;21111;-94
2020/12/23 18:15:15;;;;;;;62.50;29.02;;;;;;;8.33;86.92;98573.31;2195562;81;21253;-96
2020/12/23 18:18:22;;;;;;;63.25;28.17;;;;;;;8.31;86.96;98560.09;2195629;81;21249;-93
2020/12/23 18:24:49;;;;;;;65.62;25.80;;;;;;;8.39;87.24;98552.27;2273472;77;23616;-93
2020/12/23 18:27:59;;;;;;;58.17;26.57;;;;;;;8.31;87.38;98553.08;2270128;78;22342;-94
2020/12/23 18:31:05;;;;;;;56.55;28.87;;;;;;;8.24;87.42;98562.09;2269111;78;21151;-94
2020/12/23 18:34:09;;;;;;;51.05;24.55;;;;;;;8.22;87.41;98561.42;2270524;78;21135;-92
2020/12/23 18:37:18;;;;;;;63.05;28.23;;;;;;;8.20;87.59;98551.66;2270349;78;21138;-91
2020/12/23 18:40:21;;;;;;;57.08;25.05;;;;;;;8.18;87.69;98544.98;2270382;78;21764;-90
2020/12/23 18:43:24;;;;;;;66.62;29.55;;;;;;;8.17;87.82;98545.97;2270215;78;21277;-91
2020/12/23 18:46:26;;;;;;;63.58;30.32;;;;;;;8.13;87.95;98552.48;2270198;78;21269;-89
2020/12/23 18:49:29;;;;;;;63.68;29.52;;;;;;;8.13;88.17;98553.30;2270229;78;21288;-90
2020/12/23 18:52:41;;;;;;;59.75;27.00;;;;;;;8.16;88.16;98549.56;2239955;78;21273;-91
2020/12/23 18:55:47;;;;;;;63.85;27.42;;;;;;;8.13;88.12;98557.70;2270109;78;21729;-90
2020/12/23 18:58:49;;;;;;;53.78;26.80;;;;;;;8.12;88.35;98555.59;2269744;78;21313;-93
2020/12/23 19:01:50;;;;;;;52.60;23.77;;;;;;;8.14;88.30;98543.71;2269738;78;21142;-89
2020/12/23 19:05:00;;;;;;;60.15;26.45;;;;;;;8.15;88.27;98537.51;2269689;78;21277;-91
2020/12/23 19:08:24;;;;;;;56.23;24.65;;;;;;;8.12;88.53;98533.42;2269145;78;21106;-91
2020/12/23 19:11:30;;;;;;;55.17;25.00;;;;;;;8.10;88.54;98528.87;2240693;78;21277;-91
2020/12/23 19:14:32;;;;;;;50.70;23.70;;;;;;;8.12;88.44;98526.90;2270466;78;21282;-90
2020/12/23 19:17:35;;;;;;;50.05;24.77;;;;;;;8.08;88.56;98519.11;2240361;78;21122;-91
2020/12/23 19:20:39;;;;;;;52.08;23.67;;;;;;;8.10;88.75;98514.52;2270429;78;21107;-91
2020/12/23 19:24:08;;;;;;;55.50;24.45;;;;;;;8.10;88.62;98507.20;2269146;78;21298;-87
2020/12/23 19:27:10;;;;;;;50.38;22.40;;;;;;;8.10;88.78;98505.40;2265162;78;21135;-94
2020/12/23 19:30:12;;;;;;;46.48;22.37;;;;;;;8.10;88.67;98505.40;2239182;77;21232;-93
2020/12/23 19:33:22;;;;;;;51.08;23.45;;;;;;;8.12;88.70;98496.09;2271015;77;21119;-89
2020/12/23 19:36:29;;;;;;;48.10;22.15;;;;;;;8.10;88.78;98494.16;2228026;80;21293;-89
2020/12/23 19:39:31;;;;;;;56.13;26.73;;;;;;;8.11;88.71;98491.87;2197624;80;21265;-93
2020/12/23 19:46:10;;;;;;;49.70;24.32;;;;;;;8.09;88.89;98486.02;2075223;85;21406;-93
2020/12/23 19:49:12;;;;;;;47.00;24.43;;;;;;;8.07;88.92;98482.77;2075352;86;21345;-92
2020/12/23 19:52:17;;;;;;;49.20;24.47;;;;;;;8.08;88.97;98475.27;2079079;83;21198;-92
2020/12/23 19:55:19;;;;;;;46.53;24.75;;;;;;;8.09;88.91;98480.80;2078335;83;21209;-90
2020/12/23 19:58:22;;;;;;;43.98;22.27;;;;;;;8.10;88.97;98482.42;2076811;86;21320;-93
2020/12/23 20:01:24;;;;;;;45.83;22.95;;;;;;;8.10;88.89;98473.30;2074937;86;21169;-93
2020/12/23 20:04:26;;;;;;;42.95;23.85;;;;;;;8.09;88.85;98469.87;2075280;86;21363;-93
2020/12/23 20:07:28;;;;;;;37.98;20.75;;;;;;;8.13;88.87;98466.42;2074821;86;21222;-93
2020/12/23 20:10:32;;;;;;;48.23;23.05;;;;;;;8.15;88.86;98467.91;2074916;86;21625;-93
2020/12/23 20:13:43;;;;;;;;;;;;;;;;;;;;;
2020/12/23 20:16:56;;;;;;;48.58;24.85;;;;;;;8.15;88.83;98462.69;2259458;77;22390;-94
2020/12/23 20:19:55;;;;;;;42.00;23.62;;;;;;;8.14;88.89;98455.04;2218942;80;21136;-93
2020/12/23 20:23:03;;;;;;;44.10;22.82;;;;;;;8.14;88.89;98453.24;2199151;80;21250;-94
2020/12/23 20:26:10;;;;;;;49.38;23.38;;;;;;;8.12;88.95;98438.23;2223600;80;21249;-93
2020/12/23 20:29:34;;;;;;;42.73;21.97;;;;;;;8.11;88.96;98437.91;2223390;80;21588;-95
2020/12/23 20:36:19;;;;;;;39.03;19.82;;;;;;;8.12;88.91;98434.32;2219776;80;21297;-92
2020/12/23 20:39:25;;;;;;;34.30;20.02;;;;;;;8.11;89.04;98434.00;2224632;80;21266;-93
2020/12/23 20:46:09;;;;;;;35.73;19.98;;;;;;;8.11;89.07;98418.85;2226208;80;21237;-91
2020/12/23 20:49:13;;;;;;;41.70;22.05;;;;;;;8.12;89.10;98414.77;2225420;80;21285;-92
2020/12/23 20:52:17;;;;;;;34.63;18.70;;;;;;;8.14;89.17;98411.52;2225073;80;21293;-94
2020/12/23 20:55:19;;;;;;;38.08;19.65;;;;;;;8.10;89.13;98411.52;2223385;80;21182;-94
2020/12/23 21:01:45;;;;;;;38.10;21.65;;;;;;;8.04;89.19;98404.37;2219187;80;21353;-94
2020/12/23 21:04:49;;;;;;;47.33;24.05;;;;;;;7.98;89.20;98400.67;2223981;80;21303;-92
2020/12/23 21:07:54;;;;;;;39.08;22.55;;;;;;;7.94;89.28;98401.97;2224086;80;21292;-92
2020/12/23 21:10:58;;;;;;;37.88;22.17;;;;;;;7.90;89.18;98399.40;2192721;80;21285;-94
2020/12/23 21:14:00;;;;;;;39.90;21.65;;;;;;;7.89;89.11;98394.36;2223258;80;21265;-94
2020/12/23 21:17:02;;;;;;;43.60;23.35;;;;;;;7.86;89.14;98381.19;2210412;81;21187;-94
2020/12/23 21:20:04;;;;;;;34.23;20.43;;;;;;;7.83;89.21;98371.56;2209986;81;21630;-93
2020/12/23 21:23:06;;;;;;;39.75;23.67;;;;;;;7.77;89.28;98369.14;2210156;81;21278;-93
2020/12/23 21:26:08;;;;;;;38.23;22.02;;;;;;;7.70;89.20;98365.12;2210999;81;21298;-92
2020/12/23 21:29:10;;;;;;;41.25;22.98;;;;;;;7.66;89.28;98361.20;2209964;81;21306;-92
2020/12/23 21:32:13;;;;;;;36.98;21.25;;;;;;;7.64;89.37;98354.55;2210527;81;21294;-92
2020/12/23 21:38:56;;;;;;;34.67;19.15;;;;;;;7.57;89.52;98332.26;2137306;81;21124;-94
2020/12/23 21:42:03;;;;;;;35.52;19.90;;;;;;;7.55;89.54;98319.90;2188884;81;21258;-93
2020/12/23 21:45:05;;;;;;;29.55;17.02;;;;;;;7.56;89.39;98331.13;2188516;81;21132;-93
2020/12/23 21:48:07;;;;;;;33.25;18.73;;;;;;;7.53;89.42;98320.56;2210078;81;21619;-93
2020/12/23 21:51:09;;;;;;;31.87;17.92;;;;;;;7.47;89.34;98313.41;2211847;81;21274;-94
2020/12/23 21:54:18;;;;;;;29.67;18.12;;;;;;;7.39;89.40;98308.23;2210100;81;21159;-92
2020/12/23 21:57:23;;;;;;;25.60;17.12;;;;;;;7.36;89.27;98308.58;2209775;80;21116;-93
2020/12/23 22:00:33;;;;;;;31.33;18.55;;;;;;;7.33;89.37;98302.42;2187750;81;21182;-93
2020/12/23 22:03:39;;;;;;;31.20;17.57;;;;;;;7.29;89.28;98302.42;2210366;81;21279;-93
2020/12/23 22:06:46;;;;;;;31.42;17.98;;;;;;;7.27;89.24;98295.27;2188552;81;21254;-91
2020/12/23 22:09:53;;;;;;;29.57;16.62;;;;;;;7.24;89.16;98282.11;2188500;81;21313;-92
2020/12/23 22:16:27;;;;;;;31.20;17.35;;;;;;;7.11;89.17;98277.91;2209740;81;21301;-92
2020/12/23 22:19:34;;;;;;;29.37;15.93;;;;;;;7.10;89.21;98278.89;2182389;81;21476;-93
2020/12/23 22:26:12;;;;;;;30.72;15.75;;;;;;;7.00;89.31;98263.46;2116914;79;21303;-92
2020/12/23 22:29:14;;;;;;;26.17;15.03;;;;;;;6.95;89.48;98246.70;2140910;83;21283;-92
2020/12/23 22:32:16;;;;;;;28.07;16.48;;;;;;;6.86;89.49;98232.94;2138751;82;21632;-94
2020/12/23 22:35:18;;;;;;;33.35;20.05;;;;;;;6.80;89.77;98220.59;2138669;82;21158;-95
2020/12/23 22:38:19;;;;;;;30.55;18.10;;;;;;;6.77;89.63;98219.63;2138711;82;21584;-94
2020/12/23 22:41:22;;;;;;;34.85;19.90;;;;;;;6.74;89.64;98221.24;2139128;82;21177;-93
2020/12/23 22:44:24;;;;;;;29.48;18.80;;;;;;;6.66;89.71;98210.36;2143031;80;21137;-96
2020/12/23 22:47:26;;;;;;;32.73;18.98;;;;;;;6.66;89.79;98199.95;2142145;80;21315;-91
2020/12/23 22:50:28;;;;;;;30.77;17.98;;;;;;;6.63;89.73;98195.09;2141469;82;21316;-94
2020/12/23 22:53:29;;;;;;;33.00;21.37;;;;;;;6.64;89.81;98202.41;2139342;82;21276;-94
2020/12/23 22:56:32;;;;;;;36.88;23.47;;;;;;;6.62;89.67;98186.16;2138923;83;21601;-93
2020/12/23 22:59:35;;;;;;;32.10;19.25;;;;;;;6.63;89.55;98185.99;2138901;83;21172;-94
2020/12/23 23:02:37;;;;;;;30.90;20.62;;;;;;;6.59;89.27;98173.02;2138554;83;21189;-95
2020/12/23 23:05:42;;;;;;;26.62;18.10;;;;;;;6.56;89.13;98168.93;2138811;82;21303;-94
2020/12/23 23:08:43;;;;;;;33.50;21.82;;;;;;;6.53;89.13;98161.47;2138860;82;21299;-94
2020/12/23 23:11:47;;;;;;;29.00;19.62;;;;;;;6.47;89.09;98158.72;2138535;82;21177;-94
2020/12/23 23:14:49;;;;;;;32.50;22.62;;;;;;;6.43;89.16;98153.05;2138673;83;21161;-95
2020/12/23 23:17:51;;;;;;;32.90;21.48;;;;;;;6.37;89.16;98151.11;2138628;82;21172;-93
2020/12/23 23:20:52;;;;;;;34.18;21.80;;;;;;;6.35;89.19;98143.16;2138596;82;21763;-95
2020/12/23 23:23:55;;;;;;;31.48;21.17;;;;;;;6.30;89.15;98137.14;2138440;82;21170;-94
2020/12/23 23:26:57;;;;;;;29.30;20.40;;;;;;;6.26;89.11;98133.27;2138422;82;21588;-95
2020/12/23 23:29:59;;;;;;;34.23;20.08;;;;;;;6.19;89.06;98130.50;2085999;85;21281;-95
2020/12/23 23:33:00;;;;;;;35.75;22.62;;;;;;;6.14;89.15;98126.80;2123197;84;21835;-94
2020/12/23 23:36:02;;;;;;;30.85;20.70;;;;;;;6.15;89.33;98125.81;2086913;85;21314;-95
2020/12/23 23:39:04;;;;;;;28.00;19.85;;;;;;;6.11;89.24;98119.31;2123419;84;21287;-95
2020/12/23 23:42:05;;;;;;;27.58;18.67;;;;;;;6.10;89.37;98113.79;2086899;85;21337;-93
2020/12/23 23:45:07;;;;;;;24.18;17.35;;;;;;;6.07;89.42;98102.44;2123675;84;21324;-94
2020/12/23 23:48:08;;;;;;;27.37;20.08;;;;;;;6.05;89.23;98098.70;2088806;85;21104;-93
2020/12/23 23:51:10;;;;;;;25.48;19.12;;;;;;;6.07;89.29;98089.44;2124582;84;21329;-94
2020/12/23 23:54:12;;;;;;;29.23;19.73;;;;;;;6.06;89.21;98089.13;2086364;85;21206;-96
2020/12/23 23:57:13;;;;;;;25.52;18.32;;;;;;;6.04;89.21;98081.50;2123684;84;21319;-95
